Time;durP1;ratioP1;P1;durP2;ratioP2;P2;SDS_P1;SDS_P2;PMS_P1;PMS_P2;Temp;Humidity;BMP_temperature;BMP_pressure;BME280_temperature;BME280_humidity;BME280_pressure;Samples;Min_cycle;Max_cycle;Signal;HPM_P1;HPM_P2
2023/02/12 00:01:34;;;;;;;;;;;;;;;22.40;15.81;98697.28;5076385;28;1988;-79
2023/02/12 00:03:59;;;;;;;;;;;;;;;22.40;15.72;98694.47;5076920;28;888;-79
2023/02/12 00:06:25;;;;;;;;;;;;;;;22.55;15.38;98695.00;5076397;28;1057;-79
2023/02/12 00:08:51;;;;;;;;;;;;;;;22.41;15.85;98689.59;5073849;28;1012;-78
2023/02/12 00:11:17;;;;;;;;;;;;;;;22.60;15.61;98686.78;5057390;28;1653;-79
2023/02/12 00:13:43;;;;;;;;;;;;;;;22.22;15.82;98686.28;5074264;28;989;-79
2023/02/12 00:16:12;;;;;;;;;;;;;;;22.52;15.46;98690.19;5057110;28;1005;-79
2023/02/12 00:18:37;;;;;;;;;;;;;;;22.02;16.17;98691.06;5040645;28;1020;-79
2023/02/12 00:21:03;;;;;;;;;;;;;;;21.77;16.25;98697.97;5074059;28;1978;-79
2023/02/12 00:23:28;;;;;;;;;;;;;;;22.70;15.54;98690.63;5074014;28;927;-78
2023/02/12 00:25:54;;;;;;;;;;;;;;;22.67;15.58;98702.03;5057418;28;1006;-78
2023/02/12 00:28:19;;;;;;;;;;;;;;;23.00;15.11;98701.00;5073632;28;1021;-79
2023/02/12 00:30:45;;;;;;;;;;;;;;;22.32;15.55;98699.44;5057461;28;1124;-78
2023/02/12 00:33:10;;;;;;;;;;;;;;;22.30;15.59;98699.09;5073797;28;1009;-79
2023/02/12 00:35:36;;;;;;;;;;;;;;;22.68;15.28;98698.75;5073658;28;971;-79
2023/02/12 00:38:01;;;;;;;;;;;;;;;22.95;15.16;98695.00;5057105;28;1091;-79
2023/02/12 00:40:27;;;;;;;;;;;;;;;22.07;15.83;98693.41;5075637;28;1914;-78
2023/02/12 00:42:52;;;;;;;;;;;;;;;22.63;15.62;98691.56;5093803;28;1007;-77
2023/02/12 00:45:18;;;;;;;;;;;;;;;22.42;15.32;98691.19;5093786;28;895;-78
2023/02/12 00:47:43;;;;;;;;;;;;;;;22.27;15.74;98684.97;5077056;28;1017;-79
2023/02/12 00:50:09;;;;;;;;;;;;;;;22.31;15.62;98683.69;5077227;28;978;-79
2023/02/12 00:52:34;;;;;;;;;;;;;;;22.42;15.46;98674.16;5077157;28;1074;-79
2023/02/12 00:55:00;;;;;;;;;;;;;;;21.85;16.05;98676.75;5059924;28;987;-79
2023/02/12 00:57:25;;;;;;;;;;;;;;;22.25;15.88;98676.13;5094026;28;930;-79
2023/02/12 00:59:51;;;;;;;;;;;;;;;22.42;15.52;98671.34;5093607;28;1910;-79
2023/02/12 01:02:17;;;;;;;;;;;;;;;22.26;15.69;98661.50;5094039;28;1018;-79
2023/02/12 01:04:42;;;;;;;;;;;;;;;22.32;15.91;98659.75;5094075;28;1032;-79
2023/02/12 01:07:08;;;;;;;;;;;;;;;22.60;15.44;98660.44;5059775;28;1118;-78
2023/02/12 01:09:33;;;;;;;;;;;;;;;22.91;15.10;98665.94;5093622;28;925;-78
2023/02/12 01:11:59;;;;;;;;;;;;;;;22.82;15.26;98657.97;5043260;28;966;-78
2023/02/12 01:14:24;;;;;;;;;;;;;;;21.77;16.16;98652.63;5080271;28;1037;-79
2023/02/12 01:16:50;;;;;;;;;;;;;;;22.58;15.45;98651.56;5075496;28;1069;-78
2023/02/12 01:19:17;;;;;;;;;;;;;;;22.62;15.33;98649.47;5075927;28;858;-79
2023/02/12 01:21:43;;;;;;;;;;;;;;;22.71;15.47;98651.72;5074535;28;1901;-79
2023/02/12 01:24:08;;;;;;;;;;;;;;;22.76;15.20;98643.50;5074961;28;930;-78
2023/02/12 01:26:34;;;;;;;;;;;;;;;21.91;16.02;98645.09;5073290;28;1001;-79
2023/02/12 01:29:00;;;;;;;;;;;;;;;21.75;16.21;98637.28;5060406;28;1244;-78
2023/02/12 01:31:26;;;;;;;;;;;;;;;22.48;15.57;98639.19;5037170;28;995;-78
2023/02/12 01:33:53;;;;;;;;;;;;;;;22.54;15.49;98634.63;5020293;28;978;-78
2023/02/12 01:36:19;;;;;;;;;;;;;;;22.77;15.09;98636.56;5037364;28;1154;-79
2023/02/12 01:38:47;;;;;;;;;;;;;;;22.15;15.64;98632.56;5020646;28;1103;-79
2023/02/12 01:41:13;;;;;;;;;;;;;;;22.37;15.66;98632.94;5020449;28;1909;-79
2023/02/12 01:43:39;;;;;;;;;;;;;;;22.17;15.92;98632.91;5037059;28;996;-79
2023/02/12 01:46:04;;;;;;;;;;;;;;;22.73;15.32;98626.53;5037023;28;1297;-79
2023/02/12 01:48:32;;;;;;;;;;;;;;;23.12;14.75;98620.03;5020288;28;1411;-79
2023/02/12 01:50:57;;;;;;;;;;;;;;;23.09;14.68;98627.38;5036750;28;979;-79
2023/02/12 01:53:23;;;;;;;;;;;;;;;22.34;15.60;98623.28;5016563;28;947;-78
2023/02/12 01:55:49;;;;;;;;;;;;;;;22.98;14.90;98626.03;5016736;28;1050;-78
2023/02/12 01:58:15;;;;;;;;;;;;;;;22.84;15.27;98627.91;5000549;28;1001;-78
2023/02/12 02:00:40;;;;;;;;;;;;;;;22.60;15.30;98627.22;5016902;28;1898;-79
2023/02/12 02:03:06;;;;;;;;;;;;;;;22.31;15.47;98629.00;5031489;28;1056;-79
2023/02/12 02:05:38;;;;;;;;;;;;;;;22.65;15.24;98625.91;5056406;28;1092;-79
2023/02/12 02:08:03;;;;;;;;;;;;;;;23.23;14.61;98628.31;5056606;28;981;-79
2023/02/12 02:10:29;;;;;;;;;;;;;;;22.79;14.98;98619.09;5056178;28;976;-79
2023/02/12 02:15:39;;;;;;;;;;;;;;;22.23;15.80;98622.69;5039730;28;1221;-78
2023/02/12 02:18:22;;;;;;;;;;;;;;;22.66;15.56;98627.50;5039859;28;988;-79
2023/02/12 02:20:47;;;;;;;;;;;;;;;22.55;15.38;98624.09;5055921;28;1965;-78
2023/02/12 02:23:30;;;;;;;;;;;;;;;22.66;15.37;98627.50;5023092;28;1185;-79
2023/02/12 02:26:07;;;;;;;;;;;;;;;23.01;15.01;98625.16;5056421;28;942;-79
2023/02/12 02:28:47;;;;;;;;;;;;;;;22.48;15.70;98627.06;5039547;28;1228;-79
2023/02/12 02:31:12;;;;;;;;;;;;;;;22.03;15.99;98636.00;5053145;28;959;-79
2023/02/12 02:33:38;;;;;;;;;;;;;;;22.71;15.38;98637.53;5078067;28;1173;-79
2023/02/12 02:36:22;;;;;;;;;;;;;;;22.45;15.78;98633.63;5077220;28;1502;-79
2023/02/12 02:39:02;;;;;;;;;;;;;;;22.29;15.51;98637.97;5077229;28;995;-78
2023/02/12 02:41:27;;;;;;;;;;;;;;;22.56;15.54;98634.19;5079056;28;1909;-79
2023/02/12 02:43:53;;;;;;;;;;;;;;;22.61;15.74;98630.84;5078801;28;917;-79
2023/02/12 02:46:35;;;;;;;;;;;;;;;22.86;15.28;98636.78;5079228;28;927;-79
2023/02/12 02:49:10;;;;;;;;;;;;;;;22.51;15.50;98632.66;5079223;28;920;-78
2023/02/12 02:51:36;;;;;;;;;;;;;;;22.59;15.67;98630.50;5079148;28;979;-78
2023/02/12 02:54:09;;;;;;;;;;;;;;;22.46;15.86;98632.38;5075648;28;910;-78
2023/02/12 02:56:35;;;;;;;;;;;;;;;22.81;15.42;98623.13;5058629;28;1091;-78
2023/02/12 02:59:02;;;;;;;;;;;;;;;22.72;15.31;98624.94;5058988;28;967;-79
2023/02/12 03:01:34;;;;;;;;;;;;;;;22.54;15.45;98623.28;5042272;28;1985;-78
2023/02/12 03:04:06;;;;;;;;;;;;;;;22.91;15.19;98620.53;5058942;28;922;-79
2023/02/12 03:06:58;;;;;;;;;;;;;;;22.58;15.51;98620.38;5058791;28;1187;-79
2023/02/12 03:09:28;;;;;;;;;;;;;;;22.48;15.65;98627.06;4976236;28;1065;-79
2023/02/12 03:11:58;;;;;;;;;;;;;;;22.62;15.74;98626.75;4960257;28;1002;-79
2023/02/12 03:14:27;;;;;;;;;;;;;;;22.38;15.65;98625.22;4960255;28;927;-78
2023/02/12 03:17:03;;;;;;;;;;;;;;;22.92;15.58;98637.09;4960700;28;947;-79
2023/02/12 03:19:29;;;;;;;;;;;;;;;22.93;15.55;98643.56;4960290;28;928;-79
2023/02/12 03:21:59;;;;;;;;;;;;;;;22.57;15.51;98644.28;4960171;28;1977;-79
2023/02/12 03:24:30;;;;;;;;;;;;;;;22.29;16.12;98643.63;4965089;28;951;-79
2023/02/12 03:27:08;;;;;;;;;;;;;;;22.54;15.84;98642.34;4979630;28;1001;-79
2023/02/12 03:29:34;;;;;;;;;;;;;;;22.53;15.72;98643.56;4979301;28;1011;-79
2023/02/12 03:32:08;;;;;;;;;;;;;;;22.67;15.92;98640.44;4979220;28;977;-79
2023/02/12 03:34:52;;;;;;;;;;;;;;;22.34;15.96;98634.63;4995699;28;953;-79
2023/02/12 03:37:26;;;;;;;;;;;;;;;22.98;15.42;98621.16;4995523;28;960;-79
2023/02/12 03:40:00;;;;;;;;;;;;;;;22.08;15.99;98627.81;4979203;28;938;-79
2023/02/12 03:42:32;;;;;;;;;;;;;;;22.08;16.32;98644.00;4996061;28;1131;-79
2023/02/12 03:45:00;;;;;;;;;;;;;;;22.63;15.72;98645.38;4995401;28;1093;-79
2023/02/12 03:47:30;;;;;;;;;;;;;;;23.03;15.16;98634.81;5076976;28;888;-78
2023/02/12 03:50:06;;;;;;;;;;;;;;;22.18;16.28;98642.25;5075129;28;955;-79
2023/02/12 03:52:31;;;;;;;;;;;;;;;22.79;15.41;98641.81;5075855;28;939;-79
2023/02/12 03:54:57;;;;;;;;;;;;;;;22.53;15.71;98646.41;5075274;28;887;-79
2023/02/12 03:57:23;;;;;;;;;;;;;;;22.25;15.96;98642.91;5076794;28;926;-78
2023/02/12 03:59:49;;;;;;;;;;;;;;;22.26;16.09;98643.69;5075664;28;881;-79
2023/02/12 04:02:15;;;;;;;;;;;;;;;22.09;16.17;98629.41;5076116;28;1973;-79
2023/02/12 04:04:40;;;;;;;;;;;;;;;21.91;16.61;98633.78;5075177;28;898;-79
2023/02/12 04:07:06;;;;;;;;;;;;;;;21.98;16.26;98639.34;5076080;28;1055;-79
2023/02/12 04:09:31;;;;;;;;;;;;;;;22.54;15.72;98636.69;5074549;28;747;-78
2023/02/12 04:12:35;;;;;;;;;;;;;;;22.56;15.68;98639.88;5057156;28;832;-81
2023/02/12 04:15:03;;;;;;;;;;;;;;;22.87;15.35;98632.72;5053572;28;873;-79
2023/02/12 04:17:35;;;;;;;;;;;;;;;22.65;15.55;98642.91;5053994;28;943;-79
2023/02/12 04:20:00;;;;;;;;;;;;;;;22.33;16.00;98638.69;5053519;28;1980;-79
2023/02/12 04:22:29;;;;;;;;;;;;;;;21.97;16.00;98643.41;5053647;28;868;-79
2023/02/12 04:24:58;;;;;;;;;;;;;;;22.03;16.18;98644.50;5037288;28;983;-79
2023/02/12 04:27:23;;;;;;;;;;;;;;;22.84;15.45;98644.13;5037215;28;1199;-79
2023/02/12 04:29:51;;;;;;;;;;;;;;;22.64;15.55;98649.84;5054014;28;947;-79
2023/02/12 04:32:24;;;;;;;;;;;;;;;22.74;15.61;98657.31;5070333;28;914;-79
2023/02/12 04:34:49;;;;;;;;;;;;;;;22.27;15.75;98657.41;5069997;28;908;-79
2023/02/12 04:37:28;;;;;;;;;;;;;;;21.83;16.57;98655.78;5053502;28;1249;-79
2023/02/12 04:39:53;;;;;;;;;;;;;;;21.81;16.26;98670.38;5041182;28;1688;-78
2023/02/12 04:42:19;;;;;;;;;;;;;;;22.91;15.55;98665.94;5053711;28;1907;-78
2023/02/12 04:44:44;;;;;;;;;;;;;;;23.05;15.02;98654.25;5055000;28;1711;-78
2023/02/12 04:47:13;;;;;;;;;;;;;;;21.94;16.34;98655.59;5076817;28;880;-79
2023/02/12 04:49:38;;;;;;;;;;;;;;;22.26;16.07;98658.66;5076015;28;870;-79
2023/02/12 04:52:04;;;;;;;;;;;;;;;22.21;16.14;98664.84;5075272;28;862;-78
2023/02/12 04:54:29;;;;;;;;;;;;;;;22.86;15.04;98662.34;5074004;28;1763;-79
2023/02/12 04:56:55;;;;;;;;;;;;;;;23.18;14.78;98662.91;5062490;28;1455;-79
2023/02/12 04:59:21;;;;;;;;;;;;;;;22.45;15.82;98673.31;5087999;28;838;-79
2023/02/12 05:01:46;;;;;;;;;;;;;;;22.24;15.58;98672.47;5054924;28;2024;-79
2023/02/12 05:04:12;;;;;;;;;;;;;;;22.29;15.82;98666.31;5060242;28;1363;-79
2023/02/12 05:06:38;;;;;;;;;;;;;;;22.07;15.84;98665.06;5059950;28;1221;-78
2023/02/12 05:09:04;;;;;;;;;;;;;;;22.43;15.58;98658.75;5059586;28;1192;-78
2023/02/12 05:11:29;;;;;;;;;;;;;;;22.26;15.75;98661.50;5059590;28;1045;-78
2023/02/12 05:13:55;;;;;;;;;;;;;;;22.36;15.77;98657.66;5067328;28;1363;-79
2023/02/12 05:16:20;;;;;;;;;;;;;;;22.48;15.72;98666.75;5078937;28;1575;-79
2023/02/12 05:18:45;;;;;;;;;;;;;;;22.81;15.01;98685.53;5112463;28;881;-78
2023/02/12 05:21:11;;;;;;;;;;;;;;;22.86;14.92;98665.16;5079315;28;1893;-79
2023/02/12 05:23:37;;;;;;;;;;;;;;;22.82;15.23;98664.44;5079076;28;1550;-79
2023/02/12 05:26:03;;;;;;;;;;;;;;;22.63;15.14;98671.69;5109484;28;1612;-79
2023/02/12 05:28:29;;;;;;;;;;;;;;;22.13;15.58;98668.25;5111809;27;1685;-78
2023/02/12 05:30:54;;;;;;;;;;;;;;;22.59;15.41;98670.19;5079843;28;981;-79
2023/02/12 05:33:20;;;;;;;;;;;;;;;22.52;15.45;98673.16;5084027;28;1767;-78
2023/02/12 05:35:45;;;;;;;;;;;;;;;22.50;15.37;98675.66;5079522;28;923;-78
2023/02/12 05:38:11;;;;;;;;;;;;;;;22.70;14.90;98667.16;5078976;28;946;-78
2023/02/12 05:40:37;;;;;;;;;;;;;;;22.66;15.04;98678.56;5079398;28;1958;-78
2023/02/12 05:43:02;;;;;;;;;;;;;;;22.93;14.96;98674.78;5079234;28;868;-78
2023/02/12 05:45:28;;;;;;;;;;;;;;;23.02;14.68;98672.97;5079086;28;1738;-79
2023/02/12 05:47:54;;;;;;;;;;;;;;;22.36;15.32;98690.88;5077832;28;939;-78
2023/02/12 05:50:19;;;;;;;;;;;;;;;22.91;14.69;98699.97;5079081;28;922;-79
2023/02/12 05:52:44;;;;;;;;;;;;;;;22.66;14.94;98691.94;5079237;28;954;-78
2023/02/12 05:55:10;;;;;;;;;;;;;;;22.39;15.21;98694.91;5079008;28;1051;-78
2023/02/12 05:57:35;;;;;;;;;;;;;;;22.73;15.20;98695.41;5079251;28;879;-78
2023/02/12 06:00:01;;;;;;;;;;;;;;;22.29;15.21;98694.66;5068346;28;1910;-78
2023/02/12 06:02:37;;;;;;;;;;;;;;;22.91;14.77;98705.66;5058666;28;1058;-79
2023/02/12 06:05:03;;;;;;;;;;;;;;;23.31;14.27;98706.38;5062246;28;1509;-79
2023/02/12 06:07:28;;;;;;;;;;;;;;;22.59;14.97;98707.06;5070973;28;1621;-79
2023/02/12 06:09:54;;;;;;;;;;;;;;;22.48;15.40;98712.13;5078971;28;1205;-79
2023/02/12 06:12:19;;;;;;;;;;;;;;;22.95;14.79;98724.22;5078405;28;1678;-78
2023/02/12 06:14:45;;;;;;;;;;;;;;;22.53;15.28;98726.59;5078539;28;965;-78
2023/02/12 06:17:10;;;;;;;;;;;;;;;22.42;15.41;98730.88;5078598;28;922;-78
2023/02/12 06:19:35;;;;;;;;;;;;;;;22.88;14.84;98725.13;5078460;28;967;-78
2023/02/12 06:22:01;;;;;;;;;;;;;;;22.68;15.02;98729.97;5078308;28;1913;-78
2023/02/12 06:24:26;;;;;;;;;;;;;;;22.51;15.35;98733.97;5078088;28;1621;-78
2023/02/12 06:26:52;;;;;;;;;;;;;;;22.75;15.17;98741.19;5078699;28;982;-78
2023/02/12 06:29:17;;;;;;;;;;;;;;;22.83;14.94;98750.34;5078537;28;909;-79
2023/02/12 06:31:43;;;;;;;;;;;;;;;22.42;15.42;98745.84;5111030;28;934;-79
2023/02/12 06:34:09;;;;;;;;;;;;;;;22.99;14.83;98753.31;5092483;28;1096;-79
2023/02/12 06:36:38;;;;;;;;;;;;;;;22.79;14.92;98756.09;5059383;28;954;-78
2023/02/12 06:39:03;;;;;;;;;;;;;;;22.97;14.57;98760.66;5075761;28;1207;-79
2023/02/12 06:41:29;;;;;;;;;;;;;;;22.79;15.00;98764.59;5058187;28;1910;-78
2023/02/12 06:43:54;;;;;;;;;;;;;;;22.65;15.26;98762.06;5054557;28;1475;-78
2023/02/12 06:46:20;;;;;;;;;;;;;;;22.98;14.83;98765.09;5055829;28;965;-78
2023/02/12 06:48:45;;;;;;;;;;;;;;;22.82;15.06;98760.09;5055640;28;933;-78
2023/02/12 06:51:12;;;;;;;;;;;;;;;22.28;15.40;98758.28;5055476;28;885;-78
2023/02/12 06:53:37;;;;;;;;;;;;;;;22.44;15.34;98751.13;5058895;28;1342;-78
2023/02/12 06:56:03;;;;;;;;;;;;;;;22.68;15.14;98761.19;5075429;28;1008;-78
2023/02/12 06:58:29;;;;;;;;;;;;;;;22.79;15.17;98756.09;5075528;28;999;-79
2023/02/12 07:00:54;;;;;;;;;;;;;;;22.79;14.91;98761.75;5075482;28;1914;-78
2023/02/12 07:03:20;;;;;;;;;;;;;;;23.00;15.04;98762.59;5074528;28;1325;-78
2023/02/12 07:05:47;;;;;;;;;;;;;;;23.09;14.99;98762.84;5068072;28;1466;-79
2023/02/12 07:08:12;;;;;;;;;;;;;;;22.95;14.79;98763.94;5078057;28;981;-79
2023/02/12 07:10:38;;;;;;;;;;;;;;;22.83;15.29;98768.19;5077678;28;949;-79
2023/02/12 07:13:04;;;;;;;;;;;;;;;22.94;15.18;98775.72;5076741;28;950;-79
2023/02/12 07:15:29;;;;;;;;;;;;;;;22.81;14.99;98775.53;5076547;28;1319;-78
2023/02/12 07:17:54;;;;;;;;;;;;;;;23.09;14.76;98774.19;5077715;28;920;-78
2023/02/12 07:20:20;;;;;;;;;;;;;;;22.57;15.44;98767.06;5077145;28;1977;-79
2023/02/12 07:22:45;;;;;;;;;;;;;;;22.79;15.18;98772.31;5077509;28;1083;-79
2023/02/12 07:25:11;;;;;;;;;;;;;;;22.83;15.23;98782.38;5060749;28;1334;-78
2023/02/12 07:27:37;;;;;;;;;;;;;;;22.41;15.32;98775.44;5056999;28;901;-78
2023/02/12 07:30:03;;;;;;;;;;;;;;;22.92;15.25;98778.19;5060541;28;1457;-78
2023/02/12 07:32:30;;;;;;;;;;;;;;;22.40;15.70;98778.72;5065125;28;1652;-78
2023/02/12 07:34:55;;;;;;;;;;;;;;;22.52;15.35;98780.94;5109683;28;899;-79
2023/02/12 07:37:21;;;;;;;;;;;;;;;22.61;15.29;98784.00;5076729;28;1524;-79
2023/02/12 07:39:47;;;;;;;;;;;;;;;22.61;15.50;98787.66;5075922;28;956;-79
2023/02/12 07:42:14;;;;;;;;;;;;;;;22.81;14.99;98793.38;5065764;28;1963;-78
2023/02/12 07:44:44;;;;;;;;;;;;;;;22.99;15.02;98797.91;5057123;28;1129;-79
2023/02/12 07:47:09;;;;;;;;;;;;;;;22.80;15.28;98805.16;5056828;28;1007;-79
2023/02/12 07:49:35;;;;;;;;;;;;;;;22.38;15.75;98798.19;5067473;28;1589;-79
2023/02/12 07:52:00;;;;;;;;;;;;;;;22.98;14.96;98804.84;5077069;28;986;-79
2023/02/12 07:54:25;;;;;;;;;;;;;;;22.50;15.38;98803.25;5076474;28;1529;-79
2023/02/12 07:56:51;;;;;;;;;;;;;;;23.07;14.81;98805.84;5076700;28;877;-79
2023/02/12 07:59:17;;;;;;;;;;;;;;;22.57;15.49;98806.75;5076406;28;950;-78
2023/02/12 08:01:46;;;;;;;;;;;;;;;22.91;15.03;98808.63;5076845;28;2027;-79
2023/02/12 08:04:12;;;;;;;;;;;;;;;22.71;15.40;98800.03;5076196;28;944;-78
2023/02/12 08:06:39;;;;;;;;;;;;;;;23.03;15.27;98810.00;5107783;28;1061;-79
2023/02/12 08:09:05;;;;;;;;;;;;;;;22.66;15.40;98811.88;5103867;28;1430;-79
2023/02/12 08:11:32;;;;;;;;;;;;;;;22.43;15.54;98823.22;5060776;28;1466;-78
2023/02/12 08:13:58;;;;;;;;;;;;;;;23.06;14.88;98820.50;5057846;28;1539;-79
2023/02/12 08:16:24;;;;;;;;;;;;;;;22.65;15.50;98824.47;5099418;28;1590;-79
2023/02/12 08:18:49;;;;;;;;;;;;;;;22.57;15.47;98831.50;5087964;28;1581;-79
2023/02/12 08:21:17;;;;;;;;;;;;;;;23.14;14.79;98828.41;5073885;28;1981;-79
2023/02/12 08:23:42;;;;;;;;;;;;;;;22.43;15.54;98834.56;5075338;28;1460;-79
2023/02/12 08:26:08;;;;;;;;;;;;;;;22.92;15.37;98835.75;5058468;28;1526;-78
2023/02/12 08:28:34;;;;;;;;;;;;;;;22.83;15.32;98841.94;5087126;28;1669;-79
2023/02/12 08:31:03;;;;;;;;;;;;;;;22.89;15.18;98842.28;5071618;28;1529;-78
2023/02/12 08:33:29;;;;;;;;;;;;;;;22.72;15.31;98849.84;5055566;28;1509;-78
2023/02/12 08:36:01;;;;;;;;;;;;;;;22.47;15.84;98844.63;5055355;28;1601;-78
2023/02/12 08:38:27;;;;;;;;;;;;;;;22.39;15.92;98845.19;5053430;28;1611;-79
2023/02/12 08:40:52;;;;;;;;;;;;;;;22.70;15.41;98837.34;5061393;28;1906;-79
2023/02/12 08:43:18;;;;;;;;;;;;;;;22.24;16.10;98839.75;5075680;28;1525;-79
2023/02/12 08:45:43;;;;;;;;;;;;;;;22.40;15.74;98846.78;5075950;28;1518;-79
2023/02/12 08:48:09;;;;;;;;;;;;;;;22.78;15.43;98844.50;5075853;28;935;-79
2023/02/12 08:50:34;;;;;;;;;;;;;;;22.84;15.53;98854.09;5075877;28;953;-79
2023/02/12 08:52:59;;;;;;;;;;;;;;;22.77;15.47;98857.88;5075274;28;1217;-78
2023/02/12 08:55:25;;;;;;;;;;;;;;;23.14;15.07;98865.31;5076101;28;917;-78
2023/02/12 08:57:52;;;;;;;;;;;;;;;22.68;15.33;98868.97;5075175;28;959;-79
2023/02/12 09:00:18;;;;;;;;;;;;;;;22.76;15.29;98878.97;5075280;28;1909;-79
2023/02/12 09:02:44;;;;;;;;;;;;;;;23.28;15.17;98875.63;5107531;28;981;-79
2023/02/12 09:05:09;;;;;;;;;;;;;;;22.69;15.76;98876.28;5075549;28;1047;-79
2023/02/12 09:07:34;;;;;;;;;;;;;;;22.73;15.50;98882.66;5107396;28;1067;-79
2023/02/12 09:10:00;;;;;;;;;;;;;;;22.79;15.41;98885.81;5075489;28;938;-79
2023/02/12 09:12:25;;;;;;;;;;;;;;;22.48;15.73;98890.78;5075451;28;863;-79
2023/02/12 09:14:51;;;;;;;;;;;;;;;22.36;15.91;98892.19;5074715;28;919;-79
2023/02/12 09:17:16;;;;;;;;;;;;;;;22.77;15.40;98893.97;5074202;28;949;-78
2023/02/12 09:19:42;;;;;;;;;;;;;;;22.77;15.65;98883.41;5075240;28;862;-79
2023/02/12 09:22:07;;;;;;;;;;;;;;;23.18;15.06;98890.81;5075257;28;1902;-79
2023/02/12 09:24:32;;;;;;;;;;;;;;;23.29;14.99;98891.41;5075393;28;1096;-79
2023/02/12 09:26:58;;;;;;;;;;;;;;;23.27;14.88;98899.56;5075225;28;989;-78
2023/02/12 09:29:23;;;;;;;;;;;;;;;22.85;15.54;98899.09;5074197;28;954;-79
2023/02/12 09:31:49;;;;;;;;;;;;;;;22.44;15.58;98899.38;5097535;28;1029;-78
2023/02/12 09:34:14;;;;;;;;;;;;;;;23.46;14.78;98897.97;5055095;28;1024;-79
2023/02/12 09:36:40;;;;;;;;;;;;;;;23.40;15.00;98906.19;5074924;28;1316;-79
2023/02/12 09:39:05;;;;;;;;;;;;;;;23.12;15.46;98903.91;5075894;28;845;-79
2023/02/12 09:42:00;;;;;;;;;;;;;;;22.72;15.35;98902.97;5059786;28;1909;-79
2023/02/12 09:44:32;;;;;;;;;;;;;;;22.40;15.92;98892.16;5021850;28;1699;-79
2023/02/12 09:47:12;;;;;;;;;;;;;;;23.24;15.03;98896.78;5046195;28;1568;-79
2023/02/12 09:49:41;;;;;;;;;;;;;;;22.58;15.86;98898.31;5074980;28;1555;-79
2023/02/12 09:52:11;;;;;;;;;;;;;;;23.26;15.28;98897.16;5061179;28;1765;-79
2023/02/12 09:54:37;;;;;;;;;;;;;;;22.77;15.79;98906.13;5073714;28;1431;-78
2023/02/12 09:57:05;;;;;;;;;;;;;;;22.53;16.08;98902.44;5057827;28;1506;-79
2023/02/12 09:59:34;;;;;;;;;;;;;;;22.75;15.53;98904.97;5057750;28;1602;-79
2023/02/12 10:01:59;;;;;;;;;;;;;;;22.73;15.45;98905.38;5077191;28;1982;-79
2023/02/12 10:04:26;;;;;;;;;;;;;;;22.63;15.56;98909.19;5063484;28;1705;-79
2023/02/12 10:07:02;;;;;;;;;;;;;;;22.68;15.89;98914.38;5075441;28;1553;-78
2023/02/12 10:09:30;;;;;;;;;;;;;;;22.95;15.50;98907.84;5055945;28;923;-79
2023/02/12 10:12:12;;;;;;;;;;;;;;;21.92;16.41;98901.75;5071166;28;2012;-79
2023/02/12 10:14:46;;;;;;;;;;;;;;;22.71;15.68;98905.00;5058387;28;1456;-78
2023/02/12 10:17:24;;;;;;;;;;;;;;;21.82;16.56;98909.16;5054467;28;1588;-79
2023/02/12 10:19:49;;;;;;;;;;;;;;;22.50;16.21;98899.69;5054714;28;1460;-79
2023/02/12 10:22:17;;;;;;;;;;;;;;;22.71;15.78;98902.16;5063060;28;1918;-79
2023/02/12 10:24:43;;;;;;;;;;;;;;;22.85;15.56;98901.94;5056138;28;946;-78
2023/02/12 10:27:10;;;;;;;;;;;;;;;22.39;15.96;98901.91;5057351;28;1422;-79
2023/02/12 10:29:37;;;;;;;;;;;;;;;23.01;15.76;98903.31;5092891;28;1078;-79
2023/02/12 10:32:09;;;;;;;;;;;;;;;22.57;15.86;98902.41;5068460;28;1720;-78
2023/02/12 10:34:35;;;;;;;;;;;;;;;22.81;15.85;98904.03;5082265;28;1565;-79
2023/02/12 10:37:19;;;;;;;;;;;;;;;23.04;15.30;98902.44;5072034;28;1600;-79
2023/02/12 10:39:47;;;;;;;;;;;;;;;22.69;15.69;98898.97;5057551;28;1422;-78
2023/02/12 10:42:16;;;;;;;;;;;;;;;22.90;15.39;98911.19;5076976;28;1913;-79
2023/02/12 10:44:41;;;;;;;;;;;;;;;22.43;16.05;98902.63;5077790;28;916;-79
2023/02/12 10:47:17;;;;;;;;;;;;;;;22.69;15.74;98910.31;5077898;28;1049;-79
2023/02/12 10:49:43;;;;;;;;;;;;;;;22.66;15.98;98905.50;5076350;28;960;-78
2023/02/12 10:52:17;;;;;;;;;;;;;;;22.99;15.82;98911.44;5076595;28;1611;-79
2023/02/12 10:54:44;;;;;;;;;;;;;;;22.44;16.02;98921.25;5078017;28;846;-79
2023/02/12 10:57:18;;;;;;;;;;;;;;;22.47;16.04;98926.06;5066924;28;935;-79
2023/02/12 10:59:44;;;;;;;;;;;;;;;22.50;16.24;98925.22;5056239;28;994;-78
2023/02/12 11:02:35;;;;;;;;;;;;;;;22.43;16.14;98930.97;5057852;28;1910;-78
2023/02/12 11:05:19;;;;;;;;;;;;;;;22.58;15.96;98932.34;5054945;28;1056;-79
2023/02/12 11:07:46;;;;;;;;;;;;;;;21.96;16.58;98939.31;5071779;28;1365;-79
2023/02/12 11:10:18;;;;;;;;;;;;;;;22.42;16.14;98940.72;5055161;28;1009;-78
2023/02/12 11:12:47;;;;;;;;;;;;;;;22.69;16.07;98938.69;5054740;28;982;-78
2023/02/12 11:15:12;;;;;;;;;;;;;;;22.60;16.04;98935.59;5074845;28;899;-78
2023/02/12 11:17:39;;;;;;;;;;;;;;;22.50;16.04;98947.91;5074593;28;1103;-79
2023/02/12 11:20:23;;;;;;;;;;;;;;;22.54;15.95;98942.97;5058210;28;963;-79
2023/02/12 11:22:51;;;;;;;;;;;;;;;23.30;15.25;98935.59;5058003;28;940;-79
2023/02/12 11:25:18;;;;;;;;;;;;;;;22.25;16.28;98948.25;5074987;28;914;-79
2023/02/12 11:27:43;;;;;;;;;;;;;;;22.99;15.78;98951.97;5074526;28;1001;-79
2023/02/12 11:30:09;;;;;;;;;;;;;;;22.70;15.85;98943.13;5044069;28;1008;-79
2023/02/12 11:32:34;;;;;;;;;;;;;;;22.55;15.94;98944.59;5074381;28;960;-79
2023/02/12 11:35:03;;;;;;;;;;;;;;;22.51;16.23;98949.50;5074521;28;967;-79
2023/02/12 11:37:29;;;;;;;;;;;;;;;22.55;16.22;98944.59;5055917;28;1559;-79
2023/02/12 11:39:54;;;;;;;;;;;;;;;22.51;16.34;98943.81;5057149;28;1348;-79
2023/02/12 11:42:22;;;;;;;;;;;;;;;22.67;16.24;98940.34;5073400;28;1906;-79
2023/02/12 11:44:51;;;;;;;;;;;;;;;22.70;16.07;98937.44;5049323;28;1518;-79
2023/02/12 11:47:17;;;;;;;;;;;;;;;22.60;16.19;98932.75;5054304;28;1446;-78
2023/02/12 11:49:52;;;;;;;;;;;;;;;22.71;16.06;98932.56;5053673;28;1553;-79
2023/02/12 11:52:27;;;;;;;;;;;;;;;22.80;15.95;98933.63;5076661;28;896;-78
2023/02/12 11:54:54;;;;;;;;;;;;;;;22.52;15.95;98925.56;5074997;28;1902;-78
2023/02/12 11:57:40;;;;;;;;;;;;;;;22.52;15.91;98932.03;5076445;28;917;-78
2023/02/12 12:00:15;;;;;;;;;;;;;;;22.97;15.48;98930.94;5093974;28;1178;-79
2023/02/12 12:03:00;;;;;;;;;;;;;;;22.71;15.80;98927.69;5062462;28;1063;-78
2023/02/12 12:05:28;;;;;;;;;;;;;;;22.92;15.68;98922.94;5076509;28;992;-79
2023/02/12 12:07:59;;;;;;;;;;;;;;;22.74;15.93;98943.88;5076823;28;1252;-79
2023/02/12 12:10:45;;;;;;;;;;;;;;;22.64;16.01;98942.00;5076633;28;1005;-78
2023/02/12 12:13:17;;;;;;;;;;;;;;;22.68;15.87;98937.06;5093738;28;1089;-79
2023/02/12 12:21:14;;;;;;;;;;;;;;;22.68;15.82;98942.75;5093372;28;1905;-78
2023/02/12 12:23:41;;;;;;;;;;;;;;;22.53;16.09;98952.69;5094049;28;1003;-78
2023/02/12 12:26:10;;;;;;;;;;;;;;;22.22;16.39;98901.72;5060146;28;1506;-79
2023/02/12 12:28:40;;;;;;;;;;;;;;;23.24;15.69;98945.06;5076772;28;993;-78
2023/02/12 12:31:12;;;;;;;;;;;;;;;22.33;16.21;98944.91;5076812;28;1066;-79
2023/02/12 12:33:39;;;;;;;;;;;;;;;22.29;16.58;98949.03;5076704;28;924;-79
2023/02/12 12:36:20;;;;;;;;;;;;;;;22.83;15.77;98940.47;5093211;28;1047;-79
2023/02/12 12:39:11;;;;;;;;;;;;;;;22.72;15.75;98954.84;5074991;28;956;-79
2023/02/12 12:41:49;;;;;;;;;;;;;;;23.03;15.71;98951.94;5093335;28;1906;-78
2023/02/12 12:44:15;;;;;;;;;;;;;;;22.20;16.62;98949.53;5033009;28;1302;-78
2023/02/12 12:47:13;;;;;;;;;;;;;;;22.54;16.20;98951.50;5016794;28;1021;-79
2023/02/12 12:49:48;;;;;;;;;;;;;;;22.64;16.06;98964.72;4974414;28;1054;-79
2023/02/12 12:52:16;;;;;;;;;;;;;;;22.33;16.27;98956.25;4973675;28;1686;-79
2023/02/12 12:55:00;;;;;;;;;;;;;;;22.92;15.83;98963.47;4973892;28;1627;-79
2023/02/12 12:57:36;;;;;;;;;;;;;;;22.90;15.82;98970.78;4974178;28;1536;-79
2023/02/12 13:00:15;;;;;;;;;;;;;;;22.93;15.77;98964.25;4973659;28;1463;-78
2023/02/12 13:02:59;;;;;;;;;;;;;;;22.81;16.08;98969.28;4973663;28;1971;-79
2023/02/12 13:05:30;;;;;;;;;;;;;;;22.70;16.14;98968.66;4974022;28;1749;-79
2023/02/12 13:08:17;;;;;;;;;;;;;;;22.87;15.87;98969.59;4974222;28;1405;-79
2023/02/12 13:10:56;;;;;;;;;;;;;;;22.34;16.48;98974.06;4973717;28;1686;-79
2023/02/12 13:13:34;;;;;;;;;;;;;;;22.43;16.77;98990.53;4973816;28;1519;-78
2023/02/12 13:16:06;;;;;;;;;;;;;;;22.76;16.00;98992.47;4986648;28;1655;-79